sensor_id;sensor_type;location;lat;lon;timestamp;temperature;humidity
68556;HTU21D;55544;51.032;5.866;2023-03-20T00:01:16;11.32;72.16
68556;HTU21D;55544;51.032;5.866;2023-03-20T00:03:42;11.29;72.58
68556;HTU21D;55544;51.032;5.866;2023-03-20T00:08:46;11.22;72.12
68556;HTU21D;55544;51.032;5.866;2023-03-20T00:11:30;11.13;72.21
68556;HTU21D;55544;51.032;5.866;2023-03-20T00:16:29;11.11;72.25
68556;HTU21D;55544;51.032;5.866;2023-03-20T00:18:56;11.11;72.22
68556;HTU21D;55544;51.032;5.866;2023-03-20T00:21:23;11.10;72.38
68556;HTU21D;55544;51.032;5.866;2023-03-20T00:23:48;11.09;72.74
68556;HTU21D;55544;51.032;5.866;2023-03-20T00:26:17;11.07;72.64
68556;HTU21D;55544;51.032;5.866;2023-03-20T00:28:46;11.03;72.74
68556;HTU21D;55544;51.032;5.866;2023-03-20T00:31:24;11.01;72.71
68556;HTU21D;55544;51.032;5.866;2023-03-20T00:33:57;10.95;72.54
68556;HTU21D;55544;51.032;5.866;2023-03-20T00:36:25;10.88;71.96
68556;HTU21D;55544;51.032;5.866;2023-03-20T00:38:51;10.80;72.45
68556;HTU21D;55544;51.032;5.866;2023-03-20T00:41:41;10.75;72.17
68556;HTU21D;55544;51.032;5.866;2023-03-20T00:46:58;10.59;71.53
68556;HTU21D;55544;51.032;5.866;2023-03-20T00:49:31;10.57;71.63
68556;HTU21D;55544;51.032;5.866;2023-03-20T00:51:59;10.53;71.14
68556;HTU21D;55544;51.032;5.866;2023-03-20T00:54:26;10.51;70.58
68556;HTU21D;55544;51.032;5.866;2023-03-20T00:59:25;10.44;70.48
68556;HTU21D;55544;51.032;5.866;2023-03-20T01:01:52;10.41;70.68
68556;HTU21D;55544;51.032;5.866;2023-03-20T01:04:19;10.39;70.97
68556;HTU21D;55544;51.032;5.866;2023-03-20T01:06:46;10.33;71.43
68556;HTU21D;55544;51.032;5.866;2023-03-20T01:09:11;10.30;71.70
68556;HTU21D;55544;51.032;5.866;2023-03-20T01:11:39;10.25;72.06
68556;HTU21D;55544;51.032;5.866;2023-03-20T01:14:13;10.20;72.28
68556;HTU21D;55544;51.032;5.866;2023-03-20T01:16:40;10.11;72.66
68556;HTU21D;55544;51.032;5.866;2023-03-20T01:19:09;10.06;72.97
68556;HTU21D;55544;51.032;5.866;2023-03-20T01:21:35;9.98;73.63
68556;HTU21D;55544;51.032;5.866;2023-03-20T01:24:01;9.93;74.13
68556;HTU21D;55544;51.032;5.866;2023-03-20T01:26:47;9.88;74.48
68556;HTU21D;55544;51.032;5.866;2023-03-20T01:29:19;9.82;74.95
68556;HTU21D;55544;51.032;5.866;2023-03-20T01:31:46;9.78;75.13
68556;HTU21D;55544;51.032;5.866;2023-03-20T01:34:12;9.78;75.31
68556;HTU21D;55544;51.032;5.866;2023-03-20T01:36:39;9.71;75.59
68556;HTU21D;55544;51.032;5.866;2023-03-20T01:39:05;9.67;75.66
68556;HTU21D;55544;51.032;5.866;2023-03-20T01:41:31;9.64;75.39
68556;HTU21D;55544;51.032;5.866;2023-03-20T01:43:57;9.53;75.56
68556;HTU21D;55544;51.032;5.866;2023-03-20T01:46:30;9.49;75.70
68556;HTU21D;55544;51.032;5.866;2023-03-20T01:51:48;9.39;75.71
68556;HTU21D;55544;51.032;5.866;2023-03-20T01:54:28;9.40;75.54
68556;HTU21D;55544;51.032;5.866;2023-03-20T01:57:14;9.35;75.45
68556;HTU21D;55544;51.032;5.866;2023-03-20T01:59:43;9.33;75.52
68556;HTU21D;55544;51.032;5.866;2023-03-20T02:02:16;9.30;75.63
68556;HTU21D;55544;51.032;5.866;2023-03-20T02:04:48;9.25;75.82
68556;HTU21D;55544;51.032;5.866;2023-03-20T02:07:17;9.26;75.73
68556;HTU21D;55544;51.032;5.866;2023-03-20T02:09:56;9.27;75.78
68556;HTU21D;55544;51.032;5.866;2023-03-20T02:12:34;9.25;75.92
68556;HTU21D;55544;51.032;5.866;2023-03-20T02:15:04;9.25;76.00
68556;HTU21D;55544;51.032;5.866;2023-03-20T02:17:47;9.30;75.89
68556;HTU21D;55544;51.032;5.866;2023-03-20T02:20:25;9.27;75.96
68556;HTU21D;55544;51.032;5.866;2023-03-20T02:26:13;9.19;76.48
68556;HTU21D;55544;51.032;5.866;2023-03-20T02:32:05;9.08;77.27
68556;HTU21D;55544;51.032;5.866;2023-03-20T02:34:53;9.06;77.61
68556;HTU21D;55544;51.032;5.866;2023-03-20T02:40:02;9.02;78.22
68556;HTU21D;55544;51.032;5.866;2023-03-20T02:43:05;9.00;78.40
68556;HTU21D;55544;51.032;5.866;2023-03-20T03:00:11;8.68;80.06
68556;HTU21D;55544;51.032;5.866;2023-03-20T03:02:56;8.64;80.44
68556;HTU21D;55544;51.032;5.866;2023-03-20T03:05:37;8.56;80.96
68556;HTU21D;55544;51.032;5.866;2023-03-20T03:08:10;8.55;81.28
68556;HTU21D;55544;51.032;5.866;2023-03-20T03:10:53;8.52;81.46
68556;HTU21D;55544;51.032;5.866;2023-03-20T03:13:26;8.49;81.76
68556;HTU21D;55544;51.032;5.866;2023-03-20T03:15:59;8.49;81.92
68556;HTU21D;55544;51.032;5.866;2023-03-20T03:18:29;8.44;82.10
68556;HTU21D;55544;51.032;5.866;2023-03-20T03:20:59;8.44;82.22
68556;HTU21D;55544;51.032;5.866;2023-03-20T03:23:35;8.47;81.97
68556;HTU21D;55544;51.032;5.866;2023-03-20T03:26:08;8.42;82.29
68556;HTU21D;55544;51.032;5.866;2023-03-20T03:28:49;8.43;82.49
68556;HTU21D;55544;51.032;5.866;2023-03-20T03:31:18;8.44;82.23
68556;HTU21D;55544;51.032;5.866;2023-03-20T03:33:48;8.46;82.08
68556;HTU21D;55544;51.032;5.866;2023-03-20T03:42:10;8.37;82.10
68556;HTU21D;55544;51.032;5.866;2023-03-20T03:47:36;8.31;82.22
68556;HTU21D;55544;51.032;5.866;2023-03-20T03:50:13;8.23;82.52
68556;HTU21D;55544;51.032;5.866;2023-03-20T03:52:43;8.26;82.46
68556;HTU21D;55544;51.032;5.866;2023-03-20T03:55:18;8.24;82.32
68556;HTU21D;55544;51.032;5.866;2023-03-20T03:58:53;8.24;82.26
68556;HTU21D;55544;51.032;5.866;2023-03-20T04:01:14;8.22;82.19
68556;HTU21D;55544;51.032;5.866;2023-03-20T04:03:46;8.20;82.13
68556;HTU21D;55544;51.032;5.866;2023-03-20T04:06:15;8.18;82.07
68556;HTU21D;55544;51.032;5.866;2023-03-20T04:08:42;8.18;82.04
68556;HTU21D;55544;51.032;5.866;2023-03-20T04:11:14;8.19;81.91
68556;HTU21D;55544;51.032;5.866;2023-03-20T04:13:40;8.21;81.72
68556;HTU21D;55544;51.032;5.866;2023-03-20T04:16:11;8.19;81.88
68556;HTU21D;55544;51.032;5.866;2023-03-20T04:18:39;8.21;81.78
68556;HTU21D;55544;51.032;5.866;2023-03-20T04:21:05;8.20;81.84
68556;HTU21D;55544;51.032;5.866;2023-03-20T04:23:31;8.21;81.86
68556;HTU21D;55544;51.032;5.866;2023-03-20T04:25:58;8.20;82.09
68556;HTU21D;55544;51.032;5.866;2023-03-20T04:28:24;8.16;82.34
68556;HTU21D;55544;51.032;5.866;2023-03-20T04:31:10;8.16;82.40
68556;HTU21D;55544;51.032;5.866;2023-03-20T04:33:53;8.16;82.39
68556;HTU21D;55544;51.032;5.866;2023-03-20T04:36:33;8.19;82.29
68556;HTU21D;55544;51.032;5.866;2023-03-20T04:39:00;8.18;82.26
68556;HTU21D;55544;51.032;5.866;2023-03-20T04:41:26;8.21;82.29
68556;HTU21D;55544;51.032;5.866;2023-03-20T04:43:54;8.26;82.08
68556;HTU21D;55544;51.032;5.866;2023-03-20T04:46:21;8.21;82.29
68556;HTU21D;55544;51.032;5.866;2023-03-20T04:48:47;8.29;81.92
68556;HTU21D;55544;51.032;5.866;2023-03-20T04:51:13;8.34;81.44
68556;HTU21D;55544;51.032;5.866;2023-03-20T04:53:44;8.33;81.24
68556;HTU21D;55544;51.032;5.866;2023-03-20T04:56:11;8.31;81.15
68556;HTU21D;55544;51.032;5.866;2023-03-20T04:58:37;8.29;81.33
68556;HTU21D;55544;51.032;5.866;2023-03-20T05:01:03;8.29;81.35
68556;HTU21D;55544;51.032;5.866;2023-03-20T05:03:29;8.27;81.42
68556;HTU21D;55544;51.032;5.866;2023-03-20T05:05:55;8.27;81.47
68556;HTU21D;55544;51.032;5.866;2023-03-20T05:08:21;8.27;81.55
68556;HTU21D;55544;51.032;5.866;2023-03-20T05:10:48;8.28;81.50
68556;HTU21D;55544;51.032;5.866;2023-03-20T05:13:32;8.28;81.52
68556;HTU21D;55544;51.032;5.866;2023-03-20T05:16:16;8.28;81.55
68556;HTU21D;55544;51.032;5.866;2023-03-20T05:19:02;8.28;81.32
68556;HTU21D;55544;51.032;5.866;2023-03-20T05:21:28;8.28;81.23
68556;HTU21D;55544;51.032;5.866;2023-03-20T05:24:12;8.29;81.01
68556;HTU21D;55544;51.032;5.866;2023-03-20T05:27:06;8.29;80.83
68556;HTU21D;55544;51.032;5.866;2023-03-20T05:29:58;8.28;80.90
68556;HTU21D;55544;51.032;5.866;2023-03-20T05:32:43;8.32;80.41
68556;HTU21D;55544;51.032;5.866;2023-03-20T05:35:31;8.30;80.33
68556;HTU21D;55544;51.032;5.866;2023-03-20T05:38:32;8.33;80.19
68556;HTU21D;55544;51.032;5.866;2023-03-20T05:41:14;8.28;80.29
68556;HTU21D;55544;51.032;5.866;2023-03-20T05:43:59;8.26;80.51
68556;HTU21D;55544;51.032;5.866;2023-03-20T05:46:43;8.28;80.43
68556;HTU21D;55544;51.032;5.866;2023-03-20T05:49:29;8.27;80.62
68556;HTU21D;55544;51.032;5.866;2023-03-20T05:52:31;8.27;80.61
68556;HTU21D;55544;51.032;5.866;2023-03-20T05:55:17;8.31;80.62
68556;HTU21D;55544;51.032;5.866;2023-03-20T05:58:01;8.28;80.62
68556;HTU21D;55544;51.032;5.866;2023-03-20T06:00:46;8.30;80.46
68556;HTU21D;55544;51.032;5.866;2023-03-20T06:03:32;8.36;80.17
68556;HTU21D;55544;51.032;5.866;2023-03-20T06:06:08;8.34;80.40
68556;HTU21D;55544;51.032;5.866;2023-03-20T06:08:34;8.33;80.46
68556;HTU21D;55544;51.032;5.866;2023-03-20T06:11:02;8.35;80.42
68556;HTU21D;55544;51.032;5.866;2023-03-20T06:13:29;8.37;80.47
68556;HTU21D;55544;51.032;5.866;2023-03-20T06:15:57;8.41;80.36
68556;HTU21D;55544;51.032;5.866;2023-03-20T06:18:23;8.39;80.33
68556;HTU21D;55544;51.032;5.866;2023-03-20T06:20:53;8.37;80.65
68556;HTU21D;55544;51.032;5.866;2023-03-20T06:23:20;8.43;80.57
68556;HTU21D;55544;51.032;5.866;2023-03-20T06:25:46;8.38;80.77
68556;HTU21D;55544;51.032;5.866;2023-03-20T06:28:13;8.43;80.85
68556;HTU21D;55544;51.032;5.866;2023-03-20T06:30:39;8.46;80.57
68556;HTU21D;55544;51.032;5.866;2023-03-20T06:33:07;8.49;80.62
68556;HTU21D;55544;51.032;5.866;2023-03-20T06:35:44;8.51;80.68
68556;HTU21D;55544;51.032;5.866;2023-03-20T06:38:10;8.50;80.64
68556;HTU21D;55544;51.032;5.866;2023-03-20T06:40:36;8.53;79.97
68556;HTU21D;55544;51.032;5.866;2023-03-20T06:43:02;8.52;80.18
68556;HTU21D;55544;51.032;5.866;2023-03-20T06:45:38;8.49;80.28
68556;HTU21D;55544;51.032;5.866;2023-03-20T06:48:12;8.49;79.96
68556;HTU21D;55544;51.032;5.866;2023-03-20T06:50:38;8.48;79.94
68556;HTU21D;55544;51.032;5.866;2023-03-20T06:53:04;8.46;80.13
68556;HTU21D;55544;51.032;5.866;2023-03-20T06:55:31;8.46;80.29
68556;HTU21D;55544;51.032;5.866;2023-03-20T06:57:57;8.45;80.25
68556;HTU21D;55544;51.032;5.866;2023-03-20T07:00:23;8.52;79.94
68556;HTU21D;55544;51.032;5.866;2023-03-20T07:02:48;8.47;80.50
68556;HTU21D;55544;51.032;5.866;2023-03-20T07:05:16;8.61;79.64
68556;HTU21D;55544;51.032;5.866;2023-03-20T07:07:43;8.57;79.91
68556;HTU21D;55544;51.032;5.866;2023-03-20T07:10:09;8.62;79.61
68556;HTU21D;55544;51.032;5.866;2023-03-20T07:12:37;8.60;79.88
68556;HTU21D;55544;51.032;5.866;2023-03-20T07:15:03;8.71;79.08
68556;HTU21D;55544;51.032;5.866;2023-03-20T07:17:29;8.60;79.60
68556;HTU21D;55544;51.032;5.866;2023-03-20T07:19:55;8.61;79.55
68556;HTU21D;55544;51.032;5.866;2023-03-20T07:22:24;8.66;79.23
68556;HTU21D;55544;51.032;5.866;2023-03-20T07:24:57;8.71;79.18
68556;HTU21D;55544;51.032;5.866;2023-03-20T07:27:24;8.78;78.95
68556;HTU21D;55544;51.032;5.866;2023-03-20T07:29:52;8.77;78.91
68556;HTU21D;55544;51.032;5.866;2023-03-20T07:32:18;8.85;78.53
68556;HTU21D;55544;51.032;5.866;2023-03-20T07:34:49;8.87;78.62
68556;HTU21D;55544;51.032;5.866;2023-03-20T07:37:17;8.96;78.40
68556;HTU21D;55544;51.032;5.866;2023-03-20T07:39:54;8.98;79.04
68556;HTU21D;55544;51.032;5.866;2023-03-20T07:42:28;9.06;78.52
68556;HTU21D;55544;51.032;5.866;2023-03-20T07:44:58;9.14;78.55
68556;HTU21D;55544;51.032;5.866;2023-03-20T07:47:24;9.17;77.82
68556;HTU21D;55544;51.032;5.866;2023-03-20T07:49:50;9.22;76.70
68556;HTU21D;55544;51.032;5.866;2023-03-20T07:52:16;9.24;76.68
68556;HTU21D;55544;51.032;5.866;2023-03-20T07:54:42;9.22;76.70
68556;HTU21D;55544;51.032;5.866;2023-03-20T07:57:08;9.36;75.28
68556;HTU21D;55544;51.032;5.866;2023-03-20T07:59:33;9.32;75.63
68556;HTU21D;55544;51.032;5.866;2023-03-20T08:01:59;9.39;75.66
68556;HTU21D;55544;51.032;5.866;2023-03-20T08:04:25;9.41;75.92
68556;HTU21D;55544;51.032;5.866;2023-03-20T08:06:51;9.47;75.43
68556;HTU21D;55544;51.032;5.866;2023-03-20T08:09:16;9.50;74.36
68556;HTU21D;55544;51.032;5.866;2023-03-20T08:11:42;9.55;74.74
68556;HTU21D;55544;51.032;5.866;2023-03-20T08:14:08;9.67;74.57
68556;HTU21D;55544;51.032;5.866;2023-03-20T08:16:34;9.72;73.87
68556;HTU21D;55544;51.032;5.866;2023-03-20T08:19:00;9.76;73.78
68556;HTU21D;55544;51.032;5.866;2023-03-20T08:21:27;9.92;72.48
68556;HTU21D;55544;51.032;5.866;2023-03-20T08:23:53;9.83;72.01
68556;HTU21D;55544;51.032;5.866;2023-03-20T08:26:19;9.72;71.71
68556;HTU21D;55544;51.032;5.866;2023-03-20T08:28:45;9.74;70.97
68556;HTU21D;55544;51.032;5.866;2023-03-20T08:31:11;9.72;71.91
68556;HTU21D;55544;51.032;5.866;2023-03-20T08:33:36;9.72;71.83
68556;HTU21D;55544;51.032;5.866;2023-03-20T08:36:02;9.81;71.35
68556;HTU21D;55544;51.032;5.866;2023-03-20T08:38:28;9.74;72.14
68556;HTU21D;55544;51.032;5.866;2023-03-20T08:40:54;9.84;70.71
68556;HTU21D;55544;51.032;5.866;2023-03-20T08:43:20;9.80;70.96
68556;HTU21D;55544;51.032;5.866;2023-03-20T08:45:46;9.78;69.56
68556;HTU21D;55544;51.032;5.866;2023-03-20T08:48:12;9.74;69.66
68556;HTU21D;55544;51.032;5.866;2023-03-20T08:50:38;9.74;69.61
68556;HTU21D;55544;51.032;5.866;2023-03-20T08:53:05;9.75;69.74
68556;HTU21D;55544;51.032;5.866;2023-03-20T08:55:31;9.78;69.26
68556;HTU21D;55544;51.032;5.866;2023-03-20T08:57:57;9.82;69.91
68556;HTU21D;55544;51.032;5.866;2023-03-20T09:00:24;9.95;69.23
68556;HTU21D;55544;51.032;5.866;2023-03-20T09:02:50;10.03;69.47
68556;HTU21D;55544;51.032;5.866;2023-03-20T09:05:16;10.06;68.67
68556;HTU21D;55544;51.032;5.866;2023-03-20T09:07:42;10.07;68.51
68556;HTU21D;55544;51.032;5.866;2023-03-20T09:10:08;10.05;69.42
68556;HTU21D;55544;51.032;5.866;2023-03-20T09:12:34;10.12;68.23
68556;HTU21D;55544;51.032;5.866;2023-03-20T09:15:00;10.10;68.00
68556;HTU21D;55544;51.032;5.866;2023-03-20T09:17:26;9.99;67.78
68556;HTU21D;55544;51.032;5.866;2023-03-20T09:19:52;10.03;67.37
68556;HTU21D;55544;51.032;5.866;2023-03-20T09:22:18;9.98;67.39
68556;HTU21D;55544;51.032;5.866;2023-03-20T09:24:45;9.92;67.98
68556;HTU21D;55544;51.032;5.866;2023-03-20T09:27:11;9.94;68.50
68556;HTU21D;55544;51.032;5.866;2023-03-20T09:29:41;9.95;68.26
68556;HTU21D;55544;51.032;5.866;2023-03-20T09:32:11;9.92;68.64
68556;HTU21D;55544;51.032;5.866;2023-03-20T09:34:37;9.95;68.81
68556;HTU21D;55544;51.032;5.866;2023-03-20T09:37:02;10.03;68.80
68556;HTU21D;55544;51.032;5.866;2023-03-20T09:39:29;10.03;68.89
68556;HTU21D;55544;51.032;5.866;2023-03-20T09:42:01;10.01;68.77
68556;HTU21D;55544;51.032;5.866;2023-03-20T09:50:42;9.93;69.03
68556;HTU21D;55544;51.032;5.866;2023-03-20T09:53:38;9.92;68.91
68556;HTU21D;55544;51.032;5.866;2023-03-20T09:56:04;9.93;68.84
68556;HTU21D;55544;51.032;5.866;2023-03-20T09:58:36;9.91;68.87
68556;HTU21D;55544;51.032;5.866;2023-03-20T10:01:04;9.85;69.13
68556;HTU21D;55544;51.032;5.866;2023-03-20T10:03:50;9.78;70.14
68556;HTU21D;55544;51.032;5.866;2023-03-20T10:06:17;9.91;69.83
68556;HTU21D;55544;51.032;5.866;2023-03-20T10:08:44;9.82;70.48
68556;HTU21D;55544;51.032;5.866;2023-03-20T10:19:44;9.80;70.90
68556;HTU21D;55544;51.032;5.866;2023-03-20T10:22:30;9.79;70.35
68556;HTU21D;55544;51.032;5.866;2023-03-20T10:27:39;9.67;70.34
68556;HTU21D;55544;51.032;5.866;2023-03-20T10:30:20;9.71;71.35
68556;HTU21D;55544;51.032;5.866;2023-03-20T10:33:58;9.70;71.80
68556;HTU21D;55544;51.032;5.866;2023-03-20T10:41:27;9.68;73.67
68556;HTU21D;55544;51.032;5.866;2023-03-20T10:43:56;9.81;73.10
68556;HTU21D;55544;51.032;5.866;2023-03-20T10:46:26;9.76;73.21
68556;HTU21D;55544;51.032;5.866;2023-03-20T10:49:29;9.93;73.22
68556;HTU21D;55544;51.032;5.866;2023-03-20T10:52:01;9.99;72.97
68556;HTU21D;55544;51.032;5.866;2023-03-20T10:54:46;10.08;72.70
68556;HTU21D;55544;51.032;5.866;2023-03-20T10:57:24;10.09;72.16
68556;HTU21D;55544;51.032;5.866;2023-03-20T10:59:53;10.19;73.06
68556;HTU21D;55544;51.032;5.866;2023-03-20T11:02:24;10.21;71.61
68556;HTU21D;55544;51.032;5.866;2023-03-20T11:04:50;10.26;70.95
68556;HTU21D;55544;51.032;5.866;2023-03-20T11:07:34;10.34;70.53
68556;HTU21D;55544;51.032;5.866;2023-03-20T11:12:45;10.28;70.89
68556;HTU21D;55544;51.032;5.866;2023-03-20T11:18:14;10.16;69.13
68556;HTU21D;55544;51.032;5.866;2023-03-20T11:20:53;10.21;70.34
68556;HTU21D;55544;51.032;5.866;2023-03-20T11:23:25;10.20;71.62
68556;HTU21D;55544;51.032;5.866;2023-03-20T11:28:52;10.18;72.34
68556;HTU21D;55544;51.032;5.866;2023-03-20T11:36:46;10.13;72.74
68556;HTU21D;55544;51.032;5.866;2023-03-20T11:39:15;10.21;74.31
68556;HTU21D;55544;51.032;5.866;2023-03-20T11:44:31;10.49;72.53
68556;HTU21D;55544;51.032;5.866;2023-03-20T11:47:05;10.39;72.62
68556;HTU21D;55544;51.032;5.866;2023-03-20T11:49:56;10.40;72.16
68556;HTU21D;55544;51.032;5.866;2023-03-20T11:52:34;10.53;72.46
68556;HTU21D;55544;51.032;5.866;2023-03-20T11:55:03;10.62;71.29
68556;HTU21D;55544;51.032;5.866;2023-03-20T11:57:37;10.59;70.67
68556;HTU21D;55544;51.032;5.866;2023-03-20T12:00:26;10.65;71.24
68556;HTU21D;55544;51.032;5.866;2023-03-20T12:02:53;10.71;70.56
68556;HTU21D;55544;51.032;5.866;2023-03-20T12:07:47;10.83;71.13
68556;HTU21D;55544;51.032;5.866;2023-03-20T12:10:15;10.82;71.17
68556;HTU21D;55544;51.032;5.866;2023-03-20T12:13:00;10.93;69.65
68556;HTU21D;55544;51.032;5.866;2023-03-20T12:15:32;10.85;69.60
68556;HTU21D;55544;51.032;5.866;2023-03-20T12:21:22;10.94;69.41
68556;HTU21D;55544;51.032;5.866;2023-03-20T12:24:08;10.93;69.47
68556;HTU21D;55544;51.032;5.866;2023-03-20T12:26:47;11.16;67.94
68556;HTU21D;55544;51.032;5.866;2023-03-20T12:29:51;11.04;68.65
68556;HTU21D;55544;51.032;5.866;2023-03-20T12:32:45;11.11;67.83
68556;HTU21D;55544;51.032;5.866;2023-03-20T12:37:42;11.25;68.24
68556;HTU21D;55544;51.032;5.866;2023-03-20T12:40:17;11.22;69.51
68556;HTU21D;55544;51.032;5.866;2023-03-20T12:43:03;11.42;68.75
68556;HTU21D;55544;51.032;5.866;2023-03-20T12:45:38;11.34;69.50
68556;HTU21D;55544;51.032;5.866;2023-03-20T12:48:22;11.43;67.77
68556;HTU21D;55544;51.032;5.866;2023-03-20T12:54:00;11.39;68.03
68556;HTU21D;55544;51.032;5.866;2023-03-20T12:59:32;11.26;67.65
68556;HTU21D;55544;51.032;5.866;2023-03-20T13:05:20;11.29;68.74
68556;HTU21D;55544;51.032;5.866;2023-03-20T13:13:54;11.41;68.52
68556;HTU21D;55544;51.032;5.866;2023-03-20T13:19:31;11.42;68.55
68556;HTU21D;55544;51.032;5.866;2023-03-20T13:22:13;11.41;68.94
68556;HTU21D;55544;51.032;5.866;2023-03-20T13:24:48;11.41;68.80
68556;HTU21D;55544;51.032;5.866;2023-03-20T13:27:58;11.46;69.18
68556;HTU21D;55544;51.032;5.866;2023-03-20T13:30:15;11.59;68.17
68556;HTU21D;55544;51.032;5.866;2023-03-20T13:37:50;11.52;68.30
68556;HTU21D;55544;51.032;5.866;2023-03-20T13:40:29;11.55;68.48
68556;HTU21D;55544;51.032;5.866;2023-03-20T13:45:39;11.60;68.09
68556;HTU21D;55544;51.032;5.866;2023-03-20T13:48:41;11.49;68.84
68556;HTU21D;55544;51.032;5.866;2023-03-20T14:02:32;11.63;68.91
68556;HTU21D;55544;51.032;5.866;2023-03-20T14:05:19;11.69;68.83
68556;HTU21D;55544;51.032;5.866;2023-03-20T14:07:49;11.79;68.60
68556;HTU21D;55544;51.032;5.866;2023-03-20T14:12:54;11.85;67.72
68556;HTU21D;55544;51.032;5.866;2023-03-20T14:15:27;11.88;67.07
68556;HTU21D;55544;51.032;5.866;2023-03-20T14:17:56;11.85;68.20
68556;HTU21D;55544;51.032;5.866;2023-03-20T14:20:39;11.91;67.65
68556;HTU21D;55544;51.032;5.866;2023-03-20T14:23:16;12.01;66.88
68556;HTU21D;55544;51.032;5.866;2023-03-20T14:25:42;11.91;66.33
68556;HTU21D;55544;51.032;5.866;2023-03-20T14:31:20;11.96;66.59
68556;HTU21D;55544;51.032;5.866;2023-03-20T14:33:30;11.98;66.68
68556;HTU21D;55544;51.032;5.866;2023-03-20T14:36:21;11.98;67.12
68556;HTU21D;55544;51.032;5.866;2023-03-20T14:39:13;12.16;66.67
68556;HTU21D;55544;51.032;5.866;2023-03-20T14:42:10;12.19;67.68
68556;HTU21D;55544;51.032;5.866;2023-03-20T14:44:57;12.28;66.96
68556;HTU21D;55544;51.032;5.866;2023-03-20T14:50:29;12.33;66.85
68556;HTU21D;55544;51.032;5.866;2023-03-20T15:01:15;12.27;65.09
68556;HTU21D;55544;51.032;5.866;2023-03-20T15:03:46;12.21;64.64
68556;HTU21D;55544;51.032;5.866;2023-03-20T15:06:20;12.12;64.95
68556;HTU21D;55544;51.032;5.866;2023-03-20T15:08:51;12.18;65.36
68556;HTU21D;55544;51.032;5.866;2023-03-20T15:11:20;12.12;65.85
68556;HTU21D;55544;51.032;5.866;2023-03-20T15:13:48;12.18;65.30
68556;HTU21D;55544;51.032;5.866;2023-03-20T15:16:16;12.14;64.18
68556;HTU21D;55544;51.032;5.866;2023-03-20T15:18:49;12.15;65.01
68556;HTU21D;55544;51.032;5.866;2023-03-20T15:21:36;12.10;65.30
68556;HTU21D;55544;51.032;5.866;2023-03-20T15:24:03;12.06;65.59
68556;HTU21D;55544;51.032;5.866;2023-03-20T15:26:33;12.05;66.38
68556;HTU21D;55544;51.032;5.866;2023-03-20T15:29:06;11.99;67.50
68556;HTU21D;55544;51.032;5.866;2023-03-20T15:31:35;12.01;67.52
68556;HTU21D;55544;51.032;5.866;2023-03-20T15:34:06;11.99;67.42
68556;HTU21D;55544;51.032;5.866;2023-03-20T15:36:35;12.02;67.62
68556;HTU21D;55544;51.032;5.866;2023-03-20T15:39:17;12.03;67.88
68556;HTU21D;55544;51.032;5.866;2023-03-20T15:41:45;12.05;67.41
68556;HTU21D;55544;51.032;5.866;2023-03-20T15:46:57;12.08;67.94
68556;HTU21D;55544;51.032;5.866;2023-03-20T15:49:24;12.06;67.33
68556;HTU21D;55544;51.032;5.866;2023-03-20T15:51:54;11.90;66.96
68556;HTU21D;55544;51.032;5.866;2023-03-20T15:54:20;11.84;68.38
68556;HTU21D;55544;51.032;5.866;2023-03-20T15:56:50;11.81;69.13
68556;HTU21D;55544;51.032;5.866;2023-03-20T15:59:20;11.77;70.00
68556;HTU21D;55544;51.032;5.866;2023-03-20T16:01:49;11.73;71.07
68556;HTU21D;55544;51.032;5.866;2023-03-20T16:04:16;11.72;71.77
68556;HTU21D;55544;51.032;5.866;2023-03-20T16:06:55;11.69;72.61
68556;HTU21D;55544;51.032;5.866;2023-03-20T16:09:21;11.69;72.78
68556;HTU21D;55544;51.032;5.866;2023-03-20T16:11:55;11.70;73.38
68556;HTU21D;55544;51.032;5.866;2023-03-20T16:14:25;11.69;73.23
68556;HTU21D;55544;51.032;5.866;2023-03-20T16:16:54;11.64;73.98
68556;HTU21D;55544;51.032;5.866;2023-03-20T16:19:21;11.64;74.31
68556;HTU21D;55544;51.032;5.866;2023-03-20T16:21:58;11.59;74.64
68556;HTU21D;55544;51.032;5.866;2023-03-20T16:24:28;11.59;75.18
68556;HTU21D;55544;51.032;5.866;2023-03-20T16:26:56;11.66;74.57
68556;HTU21D;55544;51.032;5.866;2023-03-20T16:29:24;11.62;75.02
68556;HTU21D;55544;51.032;5.866;2023-03-20T16:32:23;11.61;75.06
68556;HTU21D;55544;51.032;5.866;2023-03-20T16:34:54;11.62;74.60
68556;HTU21D;55544;51.032;5.866;2023-03-20T16:37:26;11.67;75.08
68556;HTU21D;55544;51.032;5.866;2023-03-20T16:42:42;11.71;73.66
68556;HTU21D;55544;51.032;5.866;2023-03-20T16:47:49;11.74;72.55
68556;HTU21D;55544;51.032;5.866;2023-03-20T16:50:21;11.72;72.62
68556;HTU21D;55544;51.032;5.866;2023-03-20T16:52:50;11.77;72.93
68556;HTU21D;55544;51.032;5.866;2023-03-20T16:55:22;11.76;72.64
68556;HTU21D;55544;51.032;5.866;2023-03-20T16:57:52;11.75;72.61
68556;HTU21D;55544;51.032;5.866;2023-03-20T17:00:23;11.84;71.98
68556;HTU21D;55544;51.032;5.866;2023-03-20T17:02:58;11.85;71.44
68556;HTU21D;55544;51.032;5.866;2023-03-20T17:05:34;11.78;71.75
68556;HTU21D;55544;51.032;5.866;2023-03-20T17:08:11;11.79;72.13
68556;HTU21D;55544;51.032;5.866;2023-03-20T17:10:37;11.83;71.82
68556;HTU21D;55544;51.032;5.866;2023-03-20T17:13:04;11.81;72.33
68556;HTU21D;55544;51.032;5.866;2023-03-20T17:15:32;11.78;72.32
68556;HTU21D;55544;51.032;5.866;2023-03-20T17:17:57;11.81;71.98
68556;HTU21D;55544;51.032;5.866;2023-03-20T17:20:26;11.73;72.68
68556;HTU21D;55544;51.032;5.866;2023-03-20T17:22:53;11.72;72.60
68556;HTU21D;55544;51.032;5.866;2023-03-20T17:25:19;11.72;72.15
68556;HTU21D;55544;51.032;5.866;2023-03-20T17:27:45;11.72;72.54
68556;HTU21D;55544;51.032;5.866;2023-03-20T17:30:17;11.67;73.20
68556;HTU21D;55544;51.032;5.866;2023-03-20T17:32:43;11.67;73.24
68556;HTU21D;55544;51.032;5.866;2023-03-20T17:35:09;11.68;72.48
68556;HTU21D;55544;51.032;5.866;2023-03-20T17:37:35;11.67;72.46
68556;HTU21D;55544;51.032;5.866;2023-03-20T17:40:00;11.70;72.52
68556;HTU21D;55544;51.032;5.866;2023-03-20T17:42:26;11.70;72.37
68556;HTU21D;55544;51.032;5.866;2023-03-20T17:45:00;11.70;71.99
68556;HTU21D;55544;51.032;5.866;2023-03-20T17:47:28;11.66;72.29
68556;HTU21D;55544;51.032;5.866;2023-03-20T17:49:54;11.66;72.04
68556;HTU21D;55544;51.032;5.866;2023-03-20T17:52:22;11.67;71.49
68556;HTU21D;55544;51.032;5.866;2023-03-20T17:54:49;11.68;71.37
68556;HTU21D;55544;51.032;5.866;2023-03-20T17:57:30;11.68;71.41
68556;HTU21D;55544;51.032;5.866;2023-03-20T17:59:56;11.62;71.76
68556;HTU21D;55544;51.032;5.866;2023-03-20T18:02:21;11.67;71.74
68556;HTU21D;55544;51.032;5.866;2023-03-20T18:04:48;11.66;71.99
68556;HTU21D;55544;51.032;5.866;2023-03-20T18:07:15;11.67;71.90
68556;HTU21D;55544;51.032;5.866;2023-03-20T18:09:43;11.68;71.90
68556;HTU21D;55544;51.032;5.866;2023-03-20T18:12:14;11.69;71.83
68556;HTU21D;55544;51.032;5.866;2023-03-20T18:14:41;11.69;71.80
68556;HTU21D;55544;51.032;5.866;2023-03-20T18:17:11;11.70;71.88
68556;HTU21D;55544;51.032;5.866;2023-03-20T18:19:37;11.66;71.75
68556;HTU21D;55544;51.032;5.866;2023-03-20T18:22:03;11.69;71.50
68556;HTU21D;55544;51.032;5.866;2023-03-20T18:24:29;11.71;71.80
68556;HTU21D;55544;51.032;5.866;2023-03-20T18:26:55;11.75;71.58
68556;HTU21D;55544;51.032;5.866;2023-03-20T18:29:21;11.82;71.43